Metar z połowy godziny Komunikat METAR ze strony awiacja.imgw.pl Metar G30 EPCE METAR EPCE 240430Z 24008KT 9999 SCT241 06/04 Q1011 RMK 058 089 3/3 =